Terminal Aerodrome Forecast
Issued by NWS

Home | Current Version | Previous Version | Text Only | Print | Product List | Glossary On
Versions: 1 2 3 4 5 6 7 8 9 10 11 12 13 14
706
FTUS42 KMHX 282331
TAFOAJ
TAF
KOAJ 282331Z 2900/2924 VRB03KT P6SM SCT120
      TEMPO 2912/2915 BKN030
     FM291500 03007KT P6SM SCT200
      AMD LTD TO CLD VIS AND WIND=

USA.gov is the U.S. government's official web portal to all federal, state and local government web resources and services.